Time;durP1;ratioP1;P1;durP2;ratioP2;P2;SDS_P1;SDS_P2;PMS_P1;PMS_P2;Temp;Humidity;BMP_temperature;BMP_pressure;BME280_temperature;BME280_humidity;BME280_pressure;Samples;Min_cycle;Max_cycle;Signal;HPM_P1;HPM_P2
2023/04/04 00:01:59;;;;;;;;;;;;;;;8.63;66.76;102828.81;5115758;28;20038;-51
2023/04/04 00:04:25;;;;;;;;;;;;;;;8.73;66.32;102832.34;5119795;28;19995;-51
2023/04/04 00:06:51;;;;;;;;;;;;;;;8.64;66.82;102824.31;5121763;28;19923;-52
2023/04/04 00:09:17;;;;;;;;;;;;;;;8.75;66.85;102825.06;5121711;28;19916;-51
2023/04/04 00:11:44;;;;;;;;;;;;;;;8.67;66.73;102822.22;5119406;28;19946;-52
2023/04/04 00:14:09;;;;;;;;;;;;;;;8.55;67.11;102823.31;5121998;28;19924;-49
2023/04/04 00:16:35;;;;;;;;;;;;;;;8.57;67.01;102816.00;5123561;28;19916;-54
2023/04/04 00:19:00;;;;;;;;;;;;;;;8.58;67.16;102823.88;5121534;28;19935;-53
2023/04/04 00:21:26;;;;;;;;;;;;;;;8.13;68.35;102821.47;5118358;28;19916;-52
2023/04/04 00:23:53;;;;;;;;;;;;;;;8.34;68.96;102821.47;5119491;28;19931;-49
2023/04/04 00:26:20;;;;;;;;;;;;;;;8.29;69.63;102829.00;5120416;28;19926;-51
2023/04/04 00:28:45;;;;;;;;;;;;;;;8.28;69.42;102827.31;5121034;28;19922;-54
2023/04/04 00:31:10;;;;;;;;;;;;;;;8.38;69.05;102822.91;5117487;28;19947;-53
2023/04/04 00:33:36;;;;;;;;;;;;;;;8.36;69.54;102818.66;5118685;28;19923;-51
2023/04/04 00:36:02;;;;;;;;;;;;;;;8.40;68.82;102812.94;5135725;28;19916;-49
2023/04/04 00:38:28;;;;;;;;;;;;;;;8.43;68.48;102818.00;5118099;28;19915;-52
2023/04/04 00:40:55;;;;;;;;;;;;;;;8.24;68.22;102810.75;5099877;28;19930;-52
2023/04/04 00:43:21;;;;;;;;;;;;;;;8.10;69.13;102811.06;5120240;28;19927;-50
2023/04/04 00:45:46;;;;;;;;;;;;;;;8.05;69.43;102808.78;5121812;28;19916;-51
2023/04/04 00:48:12;;;;;;;;;;;;;;;8.21;69.41;102799.50;5119038;28;19983;-49
2023/04/04 00:50:37;;;;;;;;;;;;;;;8.25;68.61;102801.78;5122431;28;19979;-51
2023/04/04 00:53:02;;;;;;;;;;;;;;;8.19;69.20;102797.00;5119382;28;19916;-53
2023/04/04 00:55:28;;;;;;;;;;;;;;;8.23;68.86;102797.53;5136788;28;20669;-49
2023/04/04 00:57:53;;;;;;;;;;;;;;;8.00;69.27;102793.22;5098853;28;19935;-51
2023/04/04 01:00:19;;;;;;;;;;;;;;;7.93;69.65;102791.19;5100768;28;19926;-51
2023/04/04 01:02:44;;;;;;;;;;;;;;;7.64;71.00;102790.00;5104647;28;20023;-52
2023/04/04 01:05:10;;;;;;;;;;;;;;;7.69;71.44;102795.78;5099663;28;19923;-48
2023/04/04 01:07:36;;;;;;;;;;;;;;;7.77;71.95;102800.47;5101056;28;19927;-51
2023/04/04 01:10:05;;;;;;;;;;;;;;;7.63;72.50;102796.28;5102324;28;19916;-51
2023/04/04 01:12:32;;;;;;;;;;;;;;;7.52;73.16;102807.84;5136517;28;19916;-52
2023/04/04 01:14:58;;;;;;;;;;;;;;;7.56;73.36;102797.78;5100531;28;19979;-49
2023/04/04 01:17:24;;;;;;;;;;;;;;;7.55;72.83;102799.59;5117879;28;19924;-51
2023/04/04 01:19:58;;;;;;;;;;;;;;;7.51;73.49;102792.84;5117965;28;19916;-49
2023/04/04 01:22:26;;;;;;;;;;;;;;;7.43;74.16;102805.94;5102289;28;19924;-49
2023/04/04 01:24:54;;;;;;;;;;;;;;;7.50;74.69;102803.63;5104114;28;19920;-51
2023/04/04 01:27:20;;;;;;;;;;;;;;;7.49;75.00;102800.09;5106696;28;19916;-51
2023/04/04 01:29:52;;;;;;;;;;;;;;;7.40;74.95;102792.88;5135998;27;19983;-49
2023/04/04 01:32:19;;;;;;;;;;;;;;;7.18;75.38;102798.13;5139472;27;19916;-48
2023/04/04 01:35:21;;;;;;;;;;;;;;;7.28;75.52;102795.56;5107974;28;19916;-53
2023/04/04 01:37:51;;;;;;;;;;;;;;;7.42;75.04;102801.59;5028306;28;19924;-50
2023/04/04 01:40:20;;;;;;;;;;;;;;;7.39;75.32;102793.88;5095829;28;19924;-53
2023/04/04 01:42:50;;;;;;;;;;;;;;;7.39;75.13;102791.19;5135221;27;19942;-50
2023/04/04 01:45:16;;;;;;;;;;;;;;;7.37;75.41;102790.44;5121444;28;19984;-50
2023/04/04 01:47:43;;;;;;;;;;;;;;;7.15;76.78;102787.75;5135362;27;19991;-51
2023/04/04 01:50:15;;;;;;;;;;;;;;;7.13;77.30;102792.34;5105481;28;19926;-50
2023/04/04 01:52:40;;;;;;;;;;;;;;;7.18;77.06;102790.16;5137061;27;19915;-51
2023/04/04 01:55:05;;;;;;;;;;;;;;;7.23;77.40;102791.59;5121144;28;20393;-50
2023/04/04 01:57:32;;;;;;;;;;;;;;;7.21;77.08;102797.06;5108817;28;19916;-52
2023/04/04 01:59:57;;;;;;;;;;;;;;;6.95;79.10;102797.34;5138273;27;19991;-51
2023/04/04 02:02:23;;;;;;;;;;;;;;;6.83;80.00;102808.94;5104711;28;19942;-51
2023/04/04 02:04:48;;;;;;;;;;;;;;;6.96;79.24;102803.50;5121342;28;19937;-53
2023/04/04 02:07:14;;;;;;;;;;;;;;;6.90;79.15;102804.81;5103301;28;19923;-54
2023/04/04 02:09:40;;;;;;;;;;;;;;;6.99;78.86;102797.91;5139490;27;19919;-53
2023/04/04 02:12:07;;;;;;;;;;;;;;;7.03;79.40;102796.69;5102290;28;19942;-53
2023/04/04 02:14:33;;;;;;;;;;;;;;;6.96;79.69;102804.34;5123429;28;19943;-53
2023/04/04 02:16:59;;;;;;;;;;;;;;;6.89;79.82;102796.00;5105708;28;19924;-55
2023/04/04 02:19:26;;;;;;;;;;;;;;;6.96;80.00;102809.69;5103426;28;19977;-50
2023/04/04 02:21:51;;;;;;;;;;;;;;;7.01;79.54;102812.81;5122780;28;19916;-54
2023/04/04 02:24:17;;;;;;;;;;;;;;;6.90;79.41;102812.81;5121267;28;19991;-52
2023/04/04 02:26:42;;;;;;;;;;;;;;;6.89;80.31;102819.09;5139306;27;19916;-52
2023/04/04 02:29:08;;;;;;;;;;;;;;;6.86;81.02;102803.38;5103908;28;19916;-53
2023/04/04 02:31:33;;;;;;;;;;;;;;;6.66;82.58;102810.28;5120629;28;19924;-53
2023/04/04 02:34:00;;;;;;;;;;;;;;;6.79;82.04;102802.19;5104360;28;19919;-51
2023/04/04 02:36:26;;;;;;;;;;;;;;;6.67;81.70;102802.19;5120047;28;19923;-54
2023/04/04 02:38:53;;;;;;;;;;;;;;;6.85;82.23;102797.22;5139832;27;19923;-55
2023/04/04 02:41:22;;;;;;;;;;;;;;;6.76;82.87;102805.94;5137368;27;19916;-53
2023/04/04 02:43:47;;;;;;;;;;;;;;;6.76;83.14;102797.13;5117046;28;19934;-51
2023/04/04 02:46:12;;;;;;;;;;;;;;;6.64;83.71;102805.09;5117577;28;19916;-54
2023/04/04 02:48:38;;;;;;;;;;;;;;;6.63;83.85;102802.56;5119880;28;19941;-51
2023/04/04 02:51:03;;;;;;;;;;;;;;;6.41;84.87;102798.91;5130608;27;20149;-49
2023/04/04 02:53:30;;;;;;;;;;;;;;;6.55;85.13;102797.84;5098205;28;19916;-51
2023/04/04 02:56:02;;;;;;;;;;;;;;;6.59;84.50;102786.84;5096867;28;19916;-52
2023/04/04 02:58:28;;;;;;;;;;;;;;;6.36;85.64;102790.47;5102777;28;19920;-52
2023/04/04 03:00:54;;;;;;;;;;;;;;;6.47;85.67;102787.81;5099967;28;19939;-52
2023/04/04 03:03:24;;;;;;;;;;;;;;;6.52;85.64;102785.63;5102307;28;19947;-49
2023/04/04 03:05:50;;;;;;;;;;;;;;;6.28;86.71;102789.22;5100870;28;19952;-51
2023/04/04 03:08:16;;;;;;;;;;;;;;;6.43;86.54;102787.19;5097360;28;19948;-52
2023/04/04 03:10:43;;;;;;;;;;;;;;;6.22;87.08;102786.19;5099052;28;19924;-46
2023/04/04 03:13:08;;;;;;;;;;;;;;;6.33;87.20;102783.56;5103814;28;20000;-51
2023/04/04 03:15:34;;;;;;;;;;;;;;;6.51;85.85;102772.47;5097781;28;19926;-52
2023/04/04 03:18:00;;;;;;;;;;;;;;;6.44;86.27;102778.25;5098425;28;19942;-51
2023/04/04 03:20:28;;;;;;;;;;;;;;;6.35;86.76;102773.66;5099726;28;19955;-50
2023/04/04 03:22:53;;;;;;;;;;;;;;;6.34;87.82;102776.44;5098322;28;19925;-51
2023/04/04 03:25:19;;;;;;;;;;;;;;;6.20;88.62;102770.38;5102560;28;19916;-52
2023/04/04 03:27:45;;;;;;;;;;;;;;;6.32;89.25;102768.59;5103221;28;19924;-52
2023/04/04 03:30:17;;;;;;;;;;;;;;;6.21;89.94;102776.53;5093805;28;19981;-53
2023/04/04 03:32:43;;;;;;;;;;;;;;;6.22;91.53;102772.91;5101073;28;19920;-52
2023/04/04 03:35:10;;;;;;;;;;;;;;;6.09;91.27;102773.88;5093991;28;19921;-51
2023/04/04 03:37:36;;;;;;;;;;;;;;;6.09;91.85;102778.31;5097858;28;19988;-53
2023/04/04 03:40:01;;;;;;;;;;;;;;;6.03;92.12;102777.00;5117558;28;19916;-49
2023/04/04 03:42:32;;;;;;;;;;;;;;;5.98;93.05;102777.31;5098121;28;19953;-49
2023/04/04 03:44:57;;;;;;;;;;;;;;;6.19;92.64;102773.16;5101053;28;19921;-50
2023/04/04 03:47:29;;;;;;;;;;;;;;;6.02;93.54;102767.34;5132584;27;19943;-51
2023/04/04 03:49:56;;;;;;;;;;;;;;;5.99;93.03;102762.22;5097652;28;19983;-48
2023/04/04 03:52:22;;;;;;;;;;;;;;;6.05;93.49;102760.94;5132883;27;19963;-50
2023/04/04 03:54:48;;;;;;;;;;;;;;;6.15;93.18;102768.06;5099013;28;19915;-52
2023/04/04 03:57:14;;;;;;;;;;;;;;;6.09;93.87;102765.91;5103096;28;19927;-53
2023/04/04 03:59:41;;;;;;;;;;;;;;;6.28;92.46;102761.81;5099890;28;19955;-48
2023/04/04 04:02:06;;;;;;;;;;;;;;;6.19;93.31;102763.38;5099271;28;19932;-53
2023/04/04 04:04:32;;;;;;;;;;;;;;;5.94;94.61;102756.41;5132871;27;19916;-53
2023/04/04 04:06:58;;;;;;;;;;;;;;;5.73;95.73;102755.28;5101840;28;19924;-50
2023/04/04 04:09:23;;;;;;;;;;;;;;;5.93;95.87;102752.94;5098759;28;19927;-51
2023/04/04 04:11:49;;;;;;;;;;;;;;;6.02;95.06;102757.56;5099110;28;19916;-51
2023/04/04 04:14:15;;;;;;;;;;;;;;;5.86;96.21;102757.00;5100815;28;19916;-51
2023/04/04 04:16:41;;;;;;;;;;;;;;;5.89;96.53;102762.94;5100489;28;19952;-49
2023/04/04 04:19:08;;;;;;;;;;;;;;;5.65;98.11;102764.78;5097032;28;19938;-51
2023/04/04 04:21:38;;;;;;;;;;;;;;;5.54;100.00;102768.25;5099683;28;19920;-51
2023/04/04 04:24:04;;;;;;;;;;;;;;;5.53;100.00;102764.72;5098536;28;19939;-52
2023/04/04 04:26:30;;;;;;;;;;;;;;;5.57;100.00;102771.53;5100442;28;19916;-49
2023/04/04 04:28:55;;;;;;;;;;;;;;;5.44;100.00;102774.25;5099252;28;19920;-52
2023/04/04 04:31:28;;;;;;;;;;;;;;;5.33;100.00;102781.31;5100876;28;20094;-53
2023/04/04 04:33:54;;;;;;;;;;;;;;;5.33;100.00;102771.53;5129442;28;19980;-48
2023/04/04 04:36:25;;;;;;;;;;;;;;;5.63;100.00;102778.16;5133480;28;21302;-51
2023/04/04 04:39:19;;;;;;;;;;;;;;;5.60;100.00;102778.41;5096943;28;19983;-51
2023/04/04 04:42:05;;;;;;;;;;;;;;;5.69;100.00;102782.16;5096700;28;19916;-53
2023/04/04 04:44:33;;;;;;;;;;;;;;;5.58;99.48;102775.88;5103146;28;19917;-49
2023/04/04 04:46:58;;;;;;;;;;;;;;;5.75;99.21;102771.09;5096484;28;19927;-50
2023/04/04 04:49:24;;;;;;;;;;;;;;;5.81;99.59;102775.09;5103312;28;19912;-49
2023/04/04 04:51:50;;;;;;;;;;;;;;;5.89;98.13;102778.88;5111566;28;19935;-52
2023/04/04 04:54:18;;;;;;;;;;;;;;;5.45;100.00;102772.41;5136368;28;19927;-54
2023/04/04 04:56:45;;;;;;;;;;;;;;;5.65;99.80;102778.91;5133085;28;19984;-50
2023/04/04 04:59:13;;;;;;;;;;;;;;;5.71;98.74;102774.94;5104567;28;19923;-48
2023/04/04 05:01:42;;;;;;;;;;;;;;;5.66;99.18;102777.09;5099837;28;19916;-49
2023/04/04 05:04:08;;;;;;;;;;;;;;;5.43;100.00;102782.31;5137007;27;20055;-51
2023/04/04 05:06:43;;;;;;;;;;;;;;;5.42;100.00;102781.47;5140299;27;19923;-50
2023/04/04 05:09:10;;;;;;;;;;;;;;;5.44;100.00;102782.22;5141050;27;19916;-51
2023/04/04 05:11:37;;;;;;;;;;;;;;;5.51;100.00;102790.53;5103083;28;19982;-50
2023/04/04 05:14:04;;;;;;;;;;;;;;;5.49;100.00;102789.81;5103851;28;19916;-51
2023/04/04 05:16:34;;;;;;;;;;;;;;;5.52;100.00;102797.53;5101402;28;19989;-52
2023/04/04 05:19:02;;;;;;;;;;;;;;;5.73;99.58;102802.22;5106681;28;20317;-47
2023/04/04 05:21:33;;;;;;;;;;;;;;;5.62;100.00;102805.66;5138423;27;19916;-51
2023/04/04 05:24:02;;;;;;;;;;;;;;;5.72;99.91;102803.19;5138650;27;19946;-51
2023/04/04 05:26:28;;;;;;;;;;;;;;;5.72;99.58;102797.88;5141836;27;19916;-50
2023/04/04 05:28:54;;;;;;;;;;;;;;;5.51;100.00;102795.84;5140418;27;19949;-54
2023/04/04 05:31:22;;;;;;;;;;;;;;;5.73;99.71;102789.81;5106897;28;19939;-50
2023/04/04 05:33:50;;;;;;;;;;;;;;;5.69;99.22;102792.78;5138457;27;19916;-48
2023/04/04 05:36:26;;;;;;;;;;;;;;;5.68;99.74;102786.66;5105500;28;19998;-51
2023/04/04 05:38:58;;;;;;;;;;;;;;;5.54;99.65;102785.03;5103868;28;19924;-50
2023/04/04 05:41:28;;;;;;;;;;;;;;;5.72;99.72;102782.81;5106012;28;19916;-50
2023/04/04 05:43:58;;;;;;;;;;;;;;;5.68;99.81;102785.78;5119889;28;19920;-49
2023/04/04 05:46:24;;;;;;;;;;;;;;;5.67;99.88;102784.97;5104423;28;20003;-50
2023/04/04 05:48:52;;;;;;;;;;;;;;;5.84;98.87;102788.13;5103990;28;19916;-53
2023/04/04 05:51:18;;;;;;;;;;;;;;;5.94;98.29;102790.94;5099700;28;19935;-50
2023/04/04 05:54:02;;;;;;;;;;;;;;;5.63;100.00;102787.94;5085847;28;19917;-48
2023/04/04 05:56:32;;;;;;;;;;;;;;;5.84;99.46;102794.31;5101977;28;19916;-54
2023/04/04 05:58:59;;;;;;;;;;;;;;;5.90;98.24;102795.66;5100314;28;19917;-51
2023/04/04 06:01:28;;;;;;;;;;;;;;;5.92;97.58;102804.34;5096868;28;19924;-51
2023/04/04 06:03:55;;;;;;;;;;;;;;;5.98;97.04;102803.88;5096486;28;19912;-49
2023/04/04 06:06:24;;;;;;;;;;;;;;;6.17;96.26;102803.34;5132804;27;19928;-52
2023/04/04 06:08:50;;;;;;;;;;;;;;;6.07;96.74;102806.81;5132382;27;19916;-53
2023/04/04 06:11:15;;;;;;;;;;;;;;;6.09;96.29;102807.53;5094024;28;19952;-49
2023/04/04 06:13:41;;;;;;;;;;;;;;;6.37;94.37;102810.75;5094971;28;19917;-53
2023/04/04 06:16:12;;;;;;;;;;;;;;;6.44;93.45;102809.31;5094376;28;19920;-49
2023/04/04 06:18:38;;;;;;;;;;;;;;;6.40;93.31;102813.19;5125231;28;19939;-52
2023/04/04 06:21:04;;;;;;;;;;;;;;;6.15;94.49;102804.44;5094872;28;19924;-52
2023/04/04 06:23:30;;;;;;;;;;;;;;;6.08;95.76;102805.84;5126339;28;19942;-53
2023/04/04 06:25:56;;;;;;;;;;;;;;;6.10;95.32;102790.63;5098613;28;19922;-51
2023/04/04 06:28:22;;;;;;;;;;;;;;;6.07;94.88;102791.75;5093932;28;19916;-48
2023/04/04 06:30:49;;;;;;;;;;;;;;;6.26;94.51;102798.31;5094326;28;19945;-50
2023/04/04 06:33:23;;;;;;;;;;;;;;;6.38;93.82;102809.78;5094633;28;19927;-52
2023/04/04 06:35:48;;;;;;;;;;;;;;;6.28;94.04;102804.34;5096681;28;19912;-48
2023/04/04 06:38:15;;;;;;;;;;;;;;;6.27;95.08;102803.47;5096412;28;19954;-51
2023/04/04 06:40:41;;;;;;;;;;;;;;;6.44;94.06;102806.66;5097215;28;19990;-53
2023/04/04 06:43:07;;;;;;;;;;;;;;;6.57;94.02;102810.06;5100435;28;19942;-50
2023/04/04 06:45:37;;;;;;;;;;;;;;;6.93;90.97;102804.59;5099217;28;19916;-52
2023/04/04 06:48:02;;;;;;;;;;;;;;;7.06;89.57;102809.78;5102825;28;19945;-52
2023/04/04 06:50:31;;;;;;;;;;;;;;;6.95;89.76;102813.31;5098542;28;19981;-54
2023/04/04 06:52:59;;;;;;;;;;;;;;;6.92;90.85;102812.69;5102729;28;19923;-53
2023/04/04 06:55:25;;;;;;;;;;;;;;;7.05;90.65;102821.41;5108177;28;19941;-47
2023/04/04 06:57:50;;;;;;;;;;;;;;;7.24;90.89;102820.75;5121111;28;19920;-50
2023/04/04 07:00:16;;;;;;;;;;;;;;;7.14;91.15;102815.31;5127851;28;19968;-52
2023/04/04 07:02:41;;;;;;;;;;;;;;;7.12;92.18;102813.75;5105195;28;19927;-49
2023/04/04 07:05:07;;;;;;;;;;;;;;;7.28;92.23;102824.03;5117231;28;19920;-52
2023/04/04 07:07:32;;;;;;;;;;;;;;;7.31;92.94;102829.91;5121198;28;20279;-51
2023/04/04 07:09:58;;;;;;;;;;;;;;;7.69;91.75;102837.56;5122671;28;19920;-50
2023/04/04 07:12:23;;;;;;;;;;;;;;;7.77;90.74;102837.75;5118975;28;19916;-53
2023/04/04 07:14:49;;;;;;;;;;;;;;;7.99;89.89;102839.50;5122125;28;19922;-51
2023/04/04 07:17:15;;;;;;;;;;;;;;;8.04;90.36;102831.94;5119291;28;19923;-51
2023/04/04 07:19:41;;;;;;;;;;;;;;;7.98;90.75;102834.28;5119694;28;19945;-52
2023/04/04 07:22:06;;;;;;;;;;;;;;;8.08;90.54;102837.88;5118609;28;19916;-49
2023/04/04 07:24:32;;;;;;;;;;;;;;;8.08;91.01;102837.00;5121325;28;19920;-50
2023/04/04 07:26:57;;;;;;;;;;;;;;;8.02;91.92;102833.03;5122245;28;19946;-50
2023/04/04 07:29:23;;;;;;;;;;;;;;;7.94;92.19;102835.50;5125075;28;20071;-49
2023/04/04 07:31:48;;;;;;;;;;;;;;;8.21;91.14;102832.34;5127300;28;19924;-53
2023/04/04 07:34:14;;;;;;;;;;;;;;;8.43;89.61;102822.50;5124007;28;19920;-54
2023/04/04 07:36:39;;;;;;;;;;;;;;;8.54;88.93;102826.94;5126842;28;19955;-53
2023/04/04 07:39:05;;;;;;;;;;;;;;;8.60;88.54;102827.25;5122175;28;19924;-51
2023/04/04 07:41:30;;;;;;;;;;;;;;;8.80;87.96;102830.00;5122680;28;19985;-51
2023/04/04 07:43:56;;;;;;;;;;;;;;;8.96;86.63;102832.16;5119830;28;19920;-47
2023/04/04 07:46:21;;;;;;;;;;;;;;;8.98;86.46;102832.84;5124123;28;19922;-52
2023/04/04 07:48:47;;;;;;;;;;;;;;;9.15;86.17;102835.88;5119602;28;19916;-50
2023/04/04 07:51:14;;;;;;;;;;;;;;;9.11;86.65;102829.13;5124290;28;19984;-50
2023/04/04 07:53:40;;;;;;;;;;;;;;;9.42;84.53;102827.22;5122516;28;19922;-51
2023/04/04 07:56:05;;;;;;;;;;;;;;;9.67;81.98;102821.44;5124388;28;19916;-51
2023/04/04 07:58:32;;;;;;;;;;;;;;;9.69;81.47;102822.19;5121367;28;19912;-52
2023/04/04 08:00:58;;;;;;;;;;;;;;;10.05;78.17;102827.75;5124860;28;19916;-47
2023/04/04 08:03:24;;;;;;;;;;;;;;;10.10;77.00;102830.84;5123859;28;19993;-47
2023/04/04 08:05:50;;;;;;;;;;;;;;;10.24;75.81;102821.53;5122703;28;19915;-49
2023/04/04 08:08:15;;;;;;;;;;;;;;;10.46;74.06;102827.53;5124089;28;19938;-53
2023/04/04 08:10:42;;;;;;;;;;;;;;;10.81;71.87;102826.00;5122079;28;19946;-50
2023/04/04 08:13:08;;;;;;;;;;;;;;;10.78;71.15;102834.34;5124374;28;19916;-49
2023/04/04 08:15:34;;;;;;;;;;;;;;;10.80;71.97;102826.16;5124081;28;19941;-50
2023/04/04 08:18:00;;;;;;;;;;;;;;;10.84;71.33;102825.72;5123259;28;19928;-51
2023/04/04 08:20:27;;;;;;;;;;;;;;;11.10;69.20;102826.84;5122158;28;19917;-53
2023/04/04 08:22:52;;;;;;;;;;;;;;;11.04;67.53;102825.63;5120392;28;19955;-52
2023/04/04 08:25:18;;;;;;;;;;;;;;;10.97;65.58;102828.03;5123535;28;19937;-53
2023/04/04 08:27:44;;;;;;;;;;;;;;;11.03;64.43;102838.16;5122106;28;19924;-54
2023/04/04 08:30:10;;;;;;;;;;;;;;;11.13;63.76;102835.41;5124880;28;19920;-53
2023/04/04 08:32:35;;;;;;;;;;;;;;;11.43;61.88;102827.19;5122117;28;19919;-51
2023/04/04 08:35:01;;;;;;;;;;;;;;;11.42;59.68;102831.72;5124053;28;19939;-53
2023/04/04 08:37:28;;;;;;;;;;;;;;;11.37;59.77;102833.16;5121189;28;19923;-52
2023/04/04 08:39:54;;;;;;;;;;;;;;;11.25;58.98;102828.00;5124909;28;19920;-49
2023/04/04 08:42:20;;;;;;;;;;;;;;;11.50;55.20;102828.25;5122824;28;19983;-52
2023/04/04 08:44:49;;;;;;;;;;;;;;;11.50;54.04;102830.94;5122770;28;19927;-52
2023/04/04 08:47:15;;;;;;;;;;;;;;;11.56;52.50;102832.19;5122853;28;19920;-49
2023/04/04 08:49:42;;;;;;;;;;;;;;;11.67;52.38;102834.63;5129075;28;19955;-51
2023/04/04 08:52:10;;;;;;;;;;;;;;;11.62;52.67;102826.19;5120082;28;19966;-54
2023/04/04 08:54:37;;;;;;;;;;;;;;;11.77;52.27;102830.03;5125133;28;19976;-50
2023/04/04 08:57:03;;;;;;;;;;;;;;;11.80;50.69;102834.25;5121499;28;19946;-51
2023/04/04 08:59:28;;;;;;;;;;;;;;;11.91;48.89;102830.47;5124966;28;19915;-52
2023/04/04 09:01:59;;;;;;;;;;;;;;;12.08;47.98;102825.25;5122875;28;19927;-49
2023/04/04 09:04:26;;;;;;;;;;;;;;;12.43;46.77;102835.03;5124954;28;19920;-51
2023/04/04 09:06:52;;;;;;;;;;;;;;;12.81;46.45;102828.53;5125973;28;19975;-52
2023/04/04 09:09:18;;;;;;;;;;;;;;;13.15;46.64;102833.84;5122620;28;19923;-53
2023/04/04 09:11:45;;;;;;;;;;;;;;;13.86;45.84;102835.31;5125030;28;19923;-50
2023/04/04 09:14:10;;;;;;;;;;;;;;;14.55;43.74;102839.41;5123864;28;19916;-54
2023/04/04 09:16:36;;;;;;;;;;;;;;;14.32;43.23;102834.78;5121714;28;19926;-54
2023/04/04 09:19:01;;;;;;;;;;;;;;;15.01;42.87;102831.53;5121899;28;19915;-54
2023/04/04 09:21:28;;;;;;;;;;;;;;;15.60;42.05;102838.22;5122708;28;19927;-55
2023/04/04 09:24:00;;;;;;;;;;;;;;;16.06;41.09;102836.50;5125042;28;19928;-52
2023/04/04 09:26:26;;;;;;;;;;;;;;;16.92;39.40;102829.81;5125519;28;19923;-55
2023/04/04 09:28:52;;;;;;;;;;;;;;;17.72;38.48;102834.38;5125515;28;19916;-55
2023/04/04 09:31:18;;;;;;;;;;;;;;;18.04;37.17;102832.19;5123129;28;19915;-53
2023/04/04 09:33:43;;;;;;;;;;;;;;;18.56;36.99;102827.28;5123704;28;19983;-52
2023/04/04 09:36:10;;;;;;;;;;;;;;;19.03;36.13;102835.66;5124991;28;19935;-52
2023/04/04 09:38:37;;;;;;;;;;;;;;;19.84;34.66;102835.78;5125858;28;19920;-51
2023/04/04 09:41:05;;;;;;;;;;;;;;;20.42;33.10;102847.84;5125766;28;19920;-53
2023/04/04 09:43:31;;;;;;;;;;;;;;;20.55;33.12;102830.66;5121961;28;19919;-54
2023/04/04 09:45:57;;;;;;;;;;;;;;;20.74;34.29;102838.94;5122853;28;19924;-55
2023/04/04 09:48:26;;;;;;;;;;;;;;;20.48;34.19;102844.25;5126298;28;19999;-54
2023/04/04 09:50:52;;;;;;;;;;;;;;;21.40;31.67;102833.38;5123948;28;19919;-52
2023/04/04 09:53:18;;;;;;;;;;;;;;;21.68;30.84;102841.16;5120969;28;19922;-52
2023/04/04 09:55:50;;;;;;;;;;;;;;;21.53;31.22;102844.19;5124503;28;19920;-57
2023/04/04 09:58:27;;;;;;;;;;;;;;;21.27;31.77;102835.16;5121185;28;19915;-51
2023/04/04 10:00:58;;;;;;;;;;;;;;;21.24;31.94;102835.59;5121566;28;19923;-52
2023/04/04 10:03:23;;;;;;;;;;;;;;;21.17;31.49;102842.94;5120929;28;19920;-51
2023/04/04 10:05:56;;;;;;;;;;;;;;;21.32;31.21;102839.91;5122141;28;19915;-54
2023/04/04 10:08:22;;;;;;;;;;;;;;;21.75;31.07;102832.94;5124099;28;20018;-49
2023/04/04 10:10:51;;;;;;;;;;;;;;;22.46;30.85;102821.75;5122140;28;19927;-53
2023/04/04 10:13:24;;;;;;;;;;;;;;;22.67;30.45;102823.22;5119563;28;19916;-53
2023/04/04 10:15:50;;;;;;;;;;;;;;;23.35;29.52;102820.38;5121580;28;19920;-54
2023/04/04 10:18:17;;;;;;;;;;;;;;;23.52;29.42;102828.72;5119805;28;19916;-54
2023/04/04 10:20:42;;;;;;;;;;;;;;;23.40;28.04;102822.41;5122409;28;19991;-52
2023/04/04 10:23:07;;;;;;;;;;;;;;;24.06;27.85;102822.38;5123284;28;20394;-51
2023/04/04 10:25:35;;;;;;;;;;;;;;;24.06;28.24;102825.09;5119156;28;19975;-51
2023/04/04 10:28:01;;;;;;;;;;;;;;;24.74;26.75;102814.50;5123144;28;19924;-54
2023/04/04 10:30:27;;;;;;;;;;;;;;;24.96;26.53;102811.09;5122387;28;19922;-54
2023/04/04 10:33:00;;;;;;;;;;;;;;;24.21;27.30;102819.16;5122790;28;19941;-50
2023/04/04 10:35:27;;;;;;;;;;;;;;;24.95;26.99;102812.19;5123861;28;19951;-54
2023/04/04 10:37:57;;;;;;;;;;;;;;;25.20;26.69;102806.31;5121664;28;19926;-51
2023/04/04 10:40:25;;;;;;;;;;;;;;;25.26;26.12;102807.25;5121093;28;19955;-53
2023/04/04 10:42:51;;;;;;;;;;;;;;;25.11;26.02;102796.84;5120609;28;19955;-55
2023/04/04 10:45:16;;;;;;;;;;;;;;;24.87;26.48;102798.88;5121431;28;19923;-56
2023/04/04 10:47:42;;;;;;;;;;;;;;;25.16;26.04;102802.41;5122603;28;19912;-52
2023/04/04 10:50:11;;;;;;;;;;;;;;;25.61;26.02;102795.25;5121460;28;19915;-55
2023/04/04 10:52:39;;;;;;;;;;;;;;;25.92;25.43;102792.94;5120368;28;19915;-54
2023/04/04 10:55:06;;;;;;;;;;;;;;;26.49;25.00;102790.13;5116491;28;19908;-54
2023/04/04 10:57:32;;;;;;;;;;;;;;;26.93;25.22;102791.97;5117710;28;19938;-55
2023/04/04 11:00:07;;;;;;;;;;;;;;;27.25;24.83;102791.19;5114908;28;19931;-53
2023/04/04 11:02:47;;;;;;;;;;;;;;;27.63;24.94;102782.97;5118704;28;19924;-54
2023/04/04 11:05:21;;;;;;;;;;;;;;;27.32;24.59;102785.44;5118796;28;19998;-55
2023/04/04 11:07:50;;;;;;;;;;;;;;;27.73;24.33;102780.25;5123096;28;19916;-56
2023/04/04 11:10:21;;;;;;;;;;;;;;;27.97;23.88;102788.09;5119995;28;19941;-56
2023/04/04 11:12:53;;;;;;;;;;;;;;;28.37;23.43;102783.03;5125074;28;19922;-55
2023/04/04 11:15:25;;;;;;;;;;;;;;;28.38;23.34;102783.88;5124291;28;20005;-57
2023/04/04 11:17:53;;;;;;;;;;;;;;;28.93;22.73;102778.78;5121776;28;19934;-54
2023/04/04 11:20:29;;;;;;;;;;;;;;;28.99;23.01;102772.19;5119733;28;19911;-59
2023/04/04 11:23:02;;;;;;;;;;;;;;;29.25;22.94;102769.41;5118517;28;20147;-57
2023/04/04 11:25:30;;;;;;;;;;;;;;;28.97;22.88;102774.38;5122405;28;19979;-57
2023/04/04 11:27:57;;;;;;;;;;;;;;;29.88;22.40;102770.97;5117590;28;19912;-56
2023/04/04 11:30:23;;;;;;;;;;;;;;;30.66;21.54;102775.34;5119719;28;19923;-56
2023/04/04 11:32:49;;;;;;;;;;;;;;;30.24;21.24;102772.78;5122860;28;19947;-55
2023/04/04 11:35:15;;;;;;;;;;;;;;;30.11;21.49;102760.44;5122543;28;19919;-58
2023/04/04 11:37:50;;;;;;;;;;;;;;;30.20;21.79;102763.44;5122513;28;19912;-56
2023/04/04 11:40:15;;;;;;;;;;;;;;;29.97;21.82;102757.44;5119872;28;19930;-55
2023/04/04 11:42:41;;;;;;;;;;;;;;;29.97;21.56;102753.84;5119260;28;19919;-52
2023/04/04 11:45:09;;;;;;;;;;;;;;;30.36;21.54;102753.13;5119443;28;19920;-53
2023/04/04 11:47:35;;;;;;;;;;;;;;;30.16;21.35;102748.56;5120144;28;19931;-56
2023/04/04 11:50:06;;;;;;;;;;;;;;;30.75;21.65;102746.84;5120577;28;19952;-56
2023/04/04 11:52:33;;;;;;;;;;;;;;;31.05;20.94;102747.69;5121367;28;19931;-53
2023/04/04 11:54:59;;;;;;;;;;;;;;;31.28;20.86;102747.25;5116032;28;19915;-53
2023/04/04 11:57:24;;;;;;;;;;;;;;;30.93;20.82;102741.72;5123390;28;19931;-56
2023/04/04 11:59:50;;;;;;;;;;;;;;;31.11;20.49;102745.69;5123082;28;19938;-57
2023/04/04 12:02:20;;;;;;;;;;;;;;;31.44;20.00;102742.38;5122236;28;19975;-55
2023/04/04 12:04:46;;;;;;;;;;;;;;;31.70;20.29;102740.13;5123161;28;19920;-55
2023/04/04 12:07:14;;;;;;;;;;;;;;;31.69;20.50;102738.47;5123420;28;19916;-57
2023/04/04 12:09:41;;;;;;;;;;;;;;;31.36;20.30;102738.31;5121218;28;19916;-58
2023/04/04 12:12:06;;;;;;;;;;;;;;;31.78;20.39;102741.44;5120920;28;19930;-57
2023/04/04 12:14:32;;;;;;;;;;;;;;;32.06;19.52;102738.06;5122323;28;19923;-56
2023/04/04 12:16:58;;;;;;;;;;;;;;;32.15;19.66;102737.09;5122384;28;19916;-56
2023/04/04 12:19:25;;;;;;;;;;;;;;;31.91;19.90;102728.84;5122832;28;19947;-55
2023/04/04 12:21:51;;;;;;;;;;;;;;;32.05;19.74;102728.94;5124412;28;19975;-53
2023/04/04 12:24:16;;;;;;;;;;;;;;;31.90;19.82;102721.66;5119730;28;19953;-57
2023/04/04 12:26:43;;;;;;;;;;;;;;;32.19;19.30;102718.78;5121694;28;20366;-57
2023/04/04 12:29:09;;;;;;;;;;;;;;;31.59;19.22;102711.78;5118338;28;19924;-57
2023/04/04 12:31:36;;;;;;;;;;;;;;;32.09;19.77;102707.88;5119875;28;19920;-58
2023/04/04 12:34:03;;;;;;;;;;;;;;;32.78;18.85;102708.50;5116795;28;19916;-57
2023/04/04 12:36:30;;;;;;;;;;;;;;;32.77;19.17;102704.09;5117162;28;19912;-57
2023/04/04 12:39:00;;;;;;;;;;;;;;;33.22;18.71;102701.63;5117795;28;19996;-57
2023/04/04 12:41:26;;;;;;;;;;;;;;;32.84;19.10;102710.06;5118863;28;19916;-56
2023/04/04 12:44:02;;;;;;;;;;;;;;;32.98;19.18;102690.72;5119278;28;19987;-57